sensor_id;sensor_type;location;lat;lon;timestamp;temperature;humidity
41630;DHT22;27322;49.488;8.480;2022-10-29T00:01:19;16.60;99.90
41630;DHT22;27322;49.488;8.480;2022-10-29T00:03:44;16.60;99.90
41630;DHT22;27322;49.488;8.480;2022-10-29T00:06:11;16.60;99.90
41630;DHT22;27322;49.488;8.480;2022-10-29T00:08:38;16.50;99.90
41630;DHT22;27322;49.488;8.480;2022-10-29T00:11:18;16.50;99.90
41630;DHT22;27322;49.488;8.480;2022-10-29T00:13:44;16.50;99.90
41630;DHT22;27322;49.488;8.480;2022-10-29T00:18:37;16.50;99.90
41630;DHT22;27322;49.488;8.480;2022-10-29T00:21:04;16.50;99.90
41630;DHT22;27322;49.488;8.480;2022-10-29T00:23:30;16.50;99.90
41630;DHT22;27322;49.488;8.480;2022-10-29T00:26:00;16.50;99.90
41630;DHT22;27322;49.488;8.480;2022-10-29T00:28:26;16.50;99.90
41630;DHT22;27322;49.488;8.480;2022-10-29T00:30:52;16.50;99.90
41630;DHT22;27322;49.488;8.480;2022-10-29T00:33:18;16.50;99.90
41630;DHT22;27322;49.488;8.480;2022-10-29T00:36:15;16.50;99.90
41630;DHT22;27322;49.488;8.480;2022-10-29T00:38:41;16.50;99.90
41630;DHT22;27322;49.488;8.480;2022-10-29T00:41:11;16.40;99.90
41630;DHT22;27322;49.488;8.480;2022-10-29T00:43:39;16.40;99.90
41630;DHT22;27322;49.488;8.480;2022-10-29T00:46:11;16.40;99.90
41630;DHT22;27322;49.488;8.480;2022-10-29T00:48:45;16.40;99.90
41630;DHT22;27322;49.488;8.480;2022-10-29T00:51:13;16.40;99.90
41630;DHT22;27322;49.488;8.480;2022-10-29T00:53:47;16.40;99.90
41630;DHT22;27322;49.488;8.480;2022-10-29T00:56:14;16.40;99.90
41630;DHT22;27322;49.488;8.480;2022-10-29T00:58:40;16.40;99.90
41630;DHT22;27322;49.488;8.480;2022-10-29T01:01:06;16.40;99.90
41630;DHT22;27322;49.488;8.480;2022-10-29T01:03:32;16.40;99.90
41630;DHT22;27322;49.488;8.480;2022-10-29T01:05:59;16.40;99.90
41630;DHT22;27322;49.488;8.480;2022-10-29T01:08:25;16.40;99.90
41630;DHT22;27322;49.488;8.480;2022-10-29T01:19:22;16.40;99.90
41630;DHT22;27322;49.488;8.480;2022-10-29T01:30:16;16.30;99.90
41630;DHT22;27322;49.488;8.480;2022-10-29T01:36:14;16.30;99.90
41630;DHT22;27322;49.488;8.480;2022-10-29T01:41:39;16.30;99.90
41630;DHT22;27322;49.488;8.480;2022-10-29T01:47:00;16.20;99.90
41630;DHT22;27322;49.488;8.480;2022-10-29T01:49:37;16.20;99.90
41630;DHT22;27322;49.488;8.480;2022-10-29T01:52:05;16.20;99.90
41630;DHT22;27322;49.488;8.480;2022-10-29T01:54:31;16.20;99.90
41630;DHT22;27322;49.488;8.480;2022-10-29T01:56:58;16.20;99.90
41630;DHT22;27322;49.488;8.480;2022-10-29T01:59:29;16.10;99.90
41630;DHT22;27322;49.488;8.480;2022-10-29T02:12:47;16.10;99.90
41630;DHT22;27322;49.488;8.480;2022-10-29T02:15:18;16.10;99.90
41630;DHT22;27322;49.488;8.480;2022-10-29T02:17:44;16.00;99.90
41630;DHT22;27322;49.488;8.480;2022-10-29T02:20:11;16.00;99.90
41630;DHT22;27322;49.488;8.480;2022-10-29T02:22:37;16.00;99.90
41630;DHT22;27322;49.488;8.480;2022-10-29T02:25:04;16.00;99.90
41630;DHT22;27322;49.488;8.480;2022-10-29T02:27:30;16.00;99.90
41630;DHT22;27322;49.488;8.480;2022-10-29T02:29:56;16.00;99.90
41630;DHT22;27322;49.488;8.480;2022-10-29T02:32:22;16.00;99.90
41630;DHT22;27322;49.488;8.480;2022-10-29T02:34:47;16.00;99.90
41630;DHT22;27322;49.488;8.480;2022-10-29T02:37:13;16.00;99.90
41630;DHT22;27322;49.488;8.480;2022-10-29T02:39:38;16.00;99.90
41630;DHT22;27322;49.488;8.480;2022-10-29T02:42:04;15.90;99.90
41630;DHT22;27322;49.488;8.480;2022-10-29T02:44:29;15.90;99.90
41630;DHT22;27322;49.488;8.480;2022-10-29T02:46:55;15.90;99.90
41630;DHT22;27322;49.488;8.480;2022-10-29T02:49:21;16.00;99.90
41630;DHT22;27322;49.488;8.480;2022-10-29T02:51:47;15.90;99.90
41630;DHT22;27322;49.488;8.480;2022-10-29T02:54:12;15.90;99.90
41630;DHT22;27322;49.488;8.480;2022-10-29T02:56:38;15.90;99.90
41630;DHT22;27322;49.488;8.480;2022-10-29T02:59:03;16.00;99.90
41630;DHT22;27322;49.488;8.480;2022-10-29T03:01:29;16.00;99.90
41630;DHT22;27322;49.488;8.480;2022-10-29T03:03:54;15.90;99.90
41630;DHT22;27322;49.488;8.480;2022-10-29T03:06:20;15.90;99.90
41630;DHT22;27322;49.488;8.480;2022-10-29T03:08:46;16.00;99.90
41630;DHT22;27322;49.488;8.480;2022-10-29T03:11:12;16.00;99.90
41630;DHT22;27322;49.488;8.480;2022-10-29T03:13:38;16.00;99.90
41630;DHT22;27322;49.488;8.480;2022-10-29T03:16:04;16.00;99.90
41630;DHT22;27322;49.488;8.480;2022-10-29T03:18:30;15.90;99.90
41630;DHT22;27322;49.488;8.480;2022-10-29T03:20:55;16.00;99.90
41630;DHT22;27322;49.488;8.480;2022-10-29T03:23:21;16.00;99.90
41630;DHT22;27322;49.488;8.480;2022-10-29T03:25:53;16.00;99.90
41630;DHT22;27322;49.488;8.480;2022-10-29T03:28:21;16.00;99.90
41630;DHT22;27322;49.488;8.480;2022-10-29T03:30:47;16.00;99.90
41630;DHT22;27322;49.488;8.480;2022-10-29T03:33:12;16.00;99.90
41630;DHT22;27322;49.488;8.480;2022-10-29T03:35:38;16.00;99.90
41630;DHT22;27322;49.488;8.480;2022-10-29T03:38:04;15.90;99.90
41630;DHT22;27322;49.488;8.480;2022-10-29T03:40:29;15.90;99.90
41630;DHT22;27322;49.488;8.480;2022-10-29T03:42:55;16.00;99.90
41630;DHT22;27322;49.488;8.480;2022-10-29T03:45:21;15.90;99.90
41630;DHT22;27322;49.488;8.480;2022-10-29T03:47:46;15.90;99.90
41630;DHT22;27322;49.488;8.480;2022-10-29T03:50:12;15.90;99.90
41630;DHT22;27322;49.488;8.480;2022-10-29T03:52:37;15.90;99.90
41630;DHT22;27322;49.488;8.480;2022-10-29T03:55:04;15.90;99.90
41630;DHT22;27322;49.488;8.480;2022-10-29T03:57:30;15.90;99.90
41630;DHT22;27322;49.488;8.480;2022-10-29T03:59:55;15.80;99.90
41630;DHT22;27322;49.488;8.480;2022-10-29T04:02:21;15.90;99.90
41630;DHT22;27322;49.488;8.480;2022-10-29T04:04:47;15.90;99.90
41630;DHT22;27322;49.488;8.480;2022-10-29T04:07:12;15.90;99.90
41630;DHT22;27322;49.488;8.480;2022-10-29T04:09:38;15.90;99.90
41630;DHT22;27322;49.488;8.480;2022-10-29T04:12:04;15.90;99.90
41630;DHT22;27322;49.488;8.480;2022-10-29T04:14:30;15.80;99.90
41630;DHT22;27322;49.488;8.480;2022-10-29T04:16:56;15.90;99.90
41630;DHT22;27322;49.488;8.480;2022-10-29T04:19:22;15.90;99.90
41630;DHT22;27322;49.488;8.480;2022-10-29T04:21:47;15.90;99.90
41630;DHT22;27322;49.488;8.480;2022-10-29T04:24:13;15.90;99.90
41630;DHT22;27322;49.488;8.480;2022-10-29T04:26:41;15.90;99.90
41630;DHT22;27322;49.488;8.480;2022-10-29T04:29:07;15.90;99.90
41630;DHT22;27322;49.488;8.480;2022-10-29T04:31:33;15.90;99.90
41630;DHT22;27322;49.488;8.480;2022-10-29T04:33:59;15.90;99.90
41630;DHT22;27322;49.488;8.480;2022-10-29T04:36:24;15.90;99.90
41630;DHT22;27322;49.488;8.480;2022-10-29T04:38:50;15.90;99.90
41630;DHT22;27322;49.488;8.480;2022-10-29T04:41:15;15.90;99.90
41630;DHT22;27322;49.488;8.480;2022-10-29T04:43:41;16.00;99.90
41630;DHT22;27322;49.488;8.480;2022-10-29T04:46:09;16.00;99.90
41630;DHT22;27322;49.488;8.480;2022-10-29T04:48:36;16.00;99.90
41630;DHT22;27322;49.488;8.480;2022-10-29T04:51:01;15.90;99.90
41630;DHT22;27322;49.488;8.480;2022-10-29T04:53:27;15.90;99.90
41630;DHT22;27322;49.488;8.480;2022-10-29T04:55:58;16.00;99.90
41630;DHT22;27322;49.488;8.480;2022-10-29T04:58:25;16.00;99.90
41630;DHT22;27322;49.488;8.480;2022-10-29T05:00:50;16.00;99.90
41630;DHT22;27322;49.488;8.480;2022-10-29T05:03:16;16.00;99.90
41630;DHT22;27322;49.488;8.480;2022-10-29T05:05:42;16.00;99.90
41630;DHT22;27322;49.488;8.480;2022-10-29T05:08:09;16.00;99.90
41630;DHT22;27322;49.488;8.480;2022-10-29T05:10:38;16.00;99.90
41630;DHT22;27322;49.488;8.480;2022-10-29T05:13:10;16.00;99.90
41630;DHT22;27322;49.488;8.480;2022-10-29T05:15:37;16.00;99.90
41630;DHT22;27322;49.488;8.480;2022-10-29T05:18:04;16.00;99.90
41630;DHT22;27322;49.488;8.480;2022-10-29T05:20:30;16.00;99.90
41630;DHT22;27322;49.488;8.480;2022-10-29T05:23:04;16.10;99.90
41630;DHT22;27322;49.488;8.480;2022-10-29T05:25:30;16.00;99.90
41630;DHT22;27322;49.488;8.480;2022-10-29T05:28:01;16.00;99.90
41630;DHT22;27322;49.488;8.480;2022-10-29T05:30:27;16.00;99.90
41630;DHT22;27322;49.488;8.480;2022-10-29T05:32:52;16.00;99.90
41630;DHT22;27322;49.488;8.480;2022-10-29T05:35:18;16.00;99.90
41630;DHT22;27322;49.488;8.480;2022-10-29T05:37:52;16.10;99.90
41630;DHT22;27322;49.488;8.480;2022-10-29T05:40:19;16.10;99.90
41630;DHT22;27322;49.488;8.480;2022-10-29T05:42:45;16.10;99.90
41630;DHT22;27322;49.488;8.480;2022-10-29T05:45:10;16.10;99.90
41630;DHT22;27322;49.488;8.480;2022-10-29T05:47:36;16.10;99.90
41630;DHT22;27322;49.488;8.480;2022-10-29T05:50:02;16.10;99.90
41630;DHT22;27322;49.488;8.480;2022-10-29T05:52:28;16.10;99.90
41630;DHT22;27322;49.488;8.480;2022-10-29T05:54:53;16.10;99.90
41630;DHT22;27322;49.488;8.480;2022-10-29T05:57:19;16.10;99.90
41630;DHT22;27322;49.488;8.480;2022-10-29T05:59:47;16.20;99.90
41630;DHT22;27322;49.488;8.480;2022-10-29T06:02:13;16.20;99.90
41630;DHT22;27322;49.488;8.480;2022-10-29T06:04:39;16.20;99.90
41630;DHT22;27322;49.488;8.480;2022-10-29T06:07:04;16.20;99.90
41630;DHT22;27322;49.488;8.480;2022-10-29T06:09:30;16.30;99.90
41630;DHT22;27322;49.488;8.480;2022-10-29T06:11:56;16.20;99.90
41630;DHT22;27322;49.488;8.480;2022-10-29T06:14:22;16.20;99.90
41630;DHT22;27322;49.488;8.480;2022-10-29T06:16:47;16.30;99.90
41630;DHT22;27322;49.488;8.480;2022-10-29T06:19:13;16.30;99.90
41630;DHT22;27322;49.488;8.480;2022-10-29T06:21:39;16.30;99.90
41630;DHT22;27322;49.488;8.480;2022-10-29T06:24:05;16.30;99.90
41630;DHT22;27322;49.488;8.480;2022-10-29T06:26:31;16.30;99.90
41630;DHT22;27322;49.488;8.480;2022-10-29T06:28:56;16.30;99.90
41630;DHT22;27322;49.488;8.480;2022-10-29T06:31:22;16.40;99.90
41630;DHT22;27322;49.488;8.480;2022-10-29T06:33:47;16.30;99.90
41630;DHT22;27322;49.488;8.480;2022-10-29T06:36:13;16.40;99.90
41630;DHT22;27322;49.488;8.480;2022-10-29T06:38:39;16.40;99.90
41630;DHT22;27322;49.488;8.480;2022-10-29T06:41:04;16.40;99.90
41630;DHT22;27322;49.488;8.480;2022-10-29T06:43:30;16.40;99.90
41630;DHT22;27322;49.488;8.480;2022-10-29T06:45:55;16.40;99.90
41630;DHT22;27322;49.488;8.480;2022-10-29T06:48:21;16.40;99.90
41630;DHT22;27322;49.488;8.480;2022-10-29T06:50:47;16.40;99.90
41630;DHT22;27322;49.488;8.480;2022-10-29T06:53:13;16.40;99.90
41630;DHT22;27322;49.488;8.480;2022-10-29T06:55:39;16.40;99.90
41630;DHT22;27322;49.488;8.480;2022-10-29T07:00:33;16.40;99.90
41630;DHT22;27322;49.488;8.480;2022-10-29T07:02:59;16.40;99.90
41630;DHT22;27322;49.488;8.480;2022-10-29T07:05:25;16.40;99.90
41630;DHT22;27322;49.488;8.480;2022-10-29T07:07:55;16.40;99.90
41630;DHT22;27322;49.488;8.480;2022-10-29T07:10:21;16.40;99.90
41630;DHT22;27322;49.488;8.480;2022-10-29T07:12:46;16.40;99.90
41630;DHT22;27322;49.488;8.480;2022-10-29T07:15:12;16.40;99.90
41630;DHT22;27322;49.488;8.480;2022-10-29T07:17:38;16.40;99.90
41630;DHT22;27322;49.488;8.480;2022-10-29T07:20:05;16.40;99.90
41630;DHT22;27322;49.488;8.480;2022-10-29T07:22:32;16.50;99.90
41630;DHT22;27322;49.488;8.480;2022-10-29T07:24:57;16.50;99.90
41630;DHT22;27322;49.488;8.480;2022-10-29T07:27:23;16.50;99.90
41630;DHT22;27322;49.488;8.480;2022-10-29T07:29:49;16.50;99.90
41630;DHT22;27322;49.488;8.480;2022-10-29T07:32:14;16.50;99.90
41630;DHT22;27322;49.488;8.480;2022-10-29T07:34:40;16.50;99.90
41630;DHT22;27322;49.488;8.480;2022-10-29T07:37:06;16.50;99.90
41630;DHT22;27322;49.488;8.480;2022-10-29T07:39:31;16.50;99.90
41630;DHT22;27322;49.488;8.480;2022-10-29T07:41:57;16.50;99.90
41630;DHT22;27322;49.488;8.480;2022-10-29T07:44:22;16.50;99.90
41630;DHT22;27322;49.488;8.480;2022-10-29T07:46:48;16.50;99.90
41630;DHT22;27322;49.488;8.480;2022-10-29T07:49:13;16.60;99.90
41630;DHT22;27322;49.488;8.480;2022-10-29T07:51:39;16.60;99.90
41630;DHT22;27322;49.488;8.480;2022-10-29T07:54:05;16.60;99.90
41630;DHT22;27322;49.488;8.480;2022-10-29T07:56:30;16.60;99.90
41630;DHT22;27322;49.488;8.480;2022-10-29T07:58:56;16.60;99.90
41630;DHT22;27322;49.488;8.480;2022-10-29T08:01:22;16.60;99.90
41630;DHT22;27322;49.488;8.480;2022-10-29T08:03:51;16.60;99.90
41630;DHT22;27322;49.488;8.480;2022-10-29T08:06:17;16.60;99.90
41630;DHT22;27322;49.488;8.480;2022-10-29T08:08:42;16.60;99.90
41630;DHT22;27322;49.488;8.480;2022-10-29T08:11:08;16.70;99.90
41630;DHT22;27322;49.488;8.480;2022-10-29T08:13:34;16.60;99.90
41630;DHT22;27322;49.488;8.480;2022-10-29T08:15:59;16.70;99.90
41630;DHT22;27322;49.488;8.480;2022-10-29T08:18:25;16.60;99.90
41630;DHT22;27322;49.488;8.480;2022-10-29T08:20:51;16.60;99.90
41630;DHT22;27322;49.488;8.480;2022-10-29T08:23:16;16.70;99.90
41630;DHT22;27322;49.488;8.480;2022-10-29T08:25:43;16.70;99.90
41630;DHT22;27322;49.488;8.480;2022-10-29T08:28:13;16.70;99.90
41630;DHT22;27322;49.488;8.480;2022-10-29T08:30:39;16.70;99.90
41630;DHT22;27322;49.488;8.480;2022-10-29T08:33:05;16.70;99.90
41630;DHT22;27322;49.488;8.480;2022-10-29T08:35:32;16.70;99.90
41630;DHT22;27322;49.488;8.480;2022-10-29T08:37:58;16.70;99.90
41630;DHT22;27322;49.488;8.480;2022-10-29T08:45:46;16.80;99.90
41630;DHT22;27322;49.488;8.480;2022-10-29T08:48:45;16.80;99.90
41630;DHT22;27322;49.488;8.480;2022-10-29T08:51:13;16.80;99.90
41630;DHT22;27322;49.488;8.480;2022-10-29T08:53:44;16.80;99.90
41630;DHT22;27322;49.488;8.480;2022-10-29T08:56:33;16.80;99.90
41630;DHT22;27322;49.488;8.480;2022-10-29T09:01:34;16.90;99.90
41630;DHT22;27322;49.488;8.480;2022-10-29T09:04:01;16.90;99.90
41630;DHT22;27322;49.488;8.480;2022-10-29T09:06:42;16.90;99.90
41630;DHT22;27322;49.488;8.480;2022-10-29T09:09:10;17.00;99.90
41630;DHT22;27322;49.488;8.480;2022-10-29T09:11:54;17.00;99.90
41630;DHT22;27322;49.488;8.480;2022-10-29T09:18:03;17.10;99.90
41630;DHT22;27322;49.488;8.480;2022-10-29T09:26:28;17.10;99.90
41630;DHT22;27322;49.488;8.480;2022-10-29T09:31:40;17.10;99.90
41630;DHT22;27322;49.488;8.480;2022-10-29T09:34:19;17.10;99.90
41630;DHT22;27322;49.488;8.480;2022-10-29T09:36:50;17.20;99.90
41630;DHT22;27322;49.488;8.480;2022-10-29T09:39:24;17.20;99.90
41630;DHT22;27322;49.488;8.480;2022-10-29T09:41:52;17.20;99.90
41630;DHT22;27322;49.488;8.480;2022-10-29T09:44:28;17.30;99.90
41630;DHT22;27322;49.488;8.480;2022-10-29T09:50:20;17.40;99.90
41630;DHT22;27322;49.488;8.480;2022-10-29T09:52:51;17.50;99.90
41630;DHT22;27322;49.488;8.480;2022-10-29T09:55:22;17.50;99.90
41630;DHT22;27322;49.488;8.480;2022-10-29T09:57:48;17.60;99.90
41630;DHT22;27322;49.488;8.480;2022-10-29T10:02:47;17.60;99.90
41630;DHT22;27322;49.488;8.480;2022-10-29T10:05:14;17.70;99.90
41630;DHT22;27322;49.488;8.480;2022-10-29T10:07:40;17.80;99.90
41630;DHT22;27322;49.488;8.480;2022-10-29T10:10:19;17.80;99.90
41630;DHT22;27322;49.488;8.480;2022-10-29T10:12:47;17.90;99.90
41630;DHT22;27322;49.488;8.480;2022-10-29T10:15:27;18.00;99.90
41630;DHT22;27322;49.488;8.480;2022-10-29T10:20:39;18.10;99.90
41630;DHT22;27322;49.488;8.480;2022-10-29T10:25:48;18.20;99.90
41630;DHT22;27322;49.488;8.480;2022-10-29T10:28:17;18.30;99.90
41630;DHT22;27322;49.488;8.480;2022-10-29T10:30:44;18.30;99.90
41630;DHT22;27322;49.488;8.480;2022-10-29T10:33:22;18.40;99.90
41630;DHT22;27322;49.488;8.480;2022-10-29T10:35:48;18.50;99.90
41630;DHT22;27322;49.488;8.480;2022-10-29T10:38:14;18.60;99.90
41630;DHT22;27322;49.488;8.480;2022-10-29T10:40:41;18.70;99.90
41630;DHT22;27322;49.488;8.480;2022-10-29T10:43:17;18.80;99.90
41630;DHT22;27322;49.488;8.480;2022-10-29T10:45:55;18.80;99.90
41630;DHT22;27322;49.488;8.480;2022-10-29T10:48:22;18.80;99.90
41630;DHT22;27322;49.488;8.480;2022-10-29T10:50:48;18.80;99.90
41630;DHT22;27322;49.488;8.480;2022-10-29T10:53:19;18.80;99.90
41630;DHT22;27322;49.488;8.480;2022-10-29T10:55:55;18.80;99.90
41630;DHT22;27322;49.488;8.480;2022-10-29T10:58:33;18.80;99.90
41630;DHT22;27322;49.488;8.480;2022-10-29T11:01:12;18.80;99.90
41630;DHT22;27322;49.488;8.480;2022-10-29T11:03:42;18.80;99.90
41630;DHT22;27322;49.488;8.480;2022-10-29T11:06:19;18.80;99.90
41630;DHT22;27322;49.488;8.480;2022-10-29T11:08:58;18.80;99.90
41630;DHT22;27322;49.488;8.480;2022-10-29T11:11:49;18.80;99.90
41630;DHT22;27322;49.488;8.480;2022-10-29T11:17:00;18.90;99.90
41630;DHT22;27322;49.488;8.480;2022-10-29T11:19:40;18.90;99.90
41630;DHT22;27322;49.488;8.480;2022-10-29T11:27:36;19.00;99.90
41630;DHT22;27322;49.488;8.480;2022-10-29T11:30:13;19.00;99.90
41630;DHT22;27322;49.488;8.480;2022-10-29T11:38:33;19.00;99.90
41630;DHT22;27322;49.488;8.480;2022-10-29T11:43:37;19.10;99.90
41630;DHT22;27322;49.488;8.480;2022-10-29T11:57:21;19.10;99.90
41630;DHT22;27322;49.488;8.480;2022-10-29T12:10:53;19.10;99.90
41630;DHT22;27322;49.488;8.480;2022-10-29T12:19:23;19.10;99.90
41630;DHT22;27322;49.488;8.480;2022-10-29T12:29:58;19.20;99.90
41630;DHT22;27322;49.488;8.480;2022-10-29T12:32:36;19.20;99.90
41630;DHT22;27322;49.488;8.480;2022-10-29T12:41:00;19.30;99.90
41630;DHT22;27322;49.488;8.480;2022-10-29T12:43:29;19.40;99.90
41630;DHT22;27322;49.488;8.480;2022-10-29T12:48:48;19.50;99.90
41630;DHT22;27322;49.488;8.480;2022-10-29T12:51:33;19.50;99.90
41630;DHT22;27322;49.488;8.480;2022-10-29T12:56:38;19.50;99.90
41630;DHT22;27322;49.488;8.480;2022-10-29T13:01:51;19.50;99.90
41630;DHT22;27322;49.488;8.480;2022-10-29T13:04:27;19.50;99.90
41630;DHT22;27322;49.488;8.480;2022-10-29T13:09:37;19.60;99.90
41630;DHT22;27322;49.488;8.480;2022-10-29T13:12:04;19.60;99.90
41630;DHT22;27322;49.488;8.480;2022-10-29T13:14:50;19.50;99.90
41630;DHT22;27322;49.488;8.480;2022-10-29T13:17:31;19.60;99.90
41630;DHT22;27322;49.488;8.480;2022-10-29T13:22:54;19.60;99.90
41630;DHT22;27322;49.488;8.480;2022-10-29T13:25:43;19.60;99.90
41630;DHT22;27322;49.488;8.480;2022-10-29T13:30:36;19.60;99.90
41630;DHT22;27322;49.488;8.480;2022-10-29T13:41:17;19.60;99.90
41630;DHT22;27322;49.488;8.480;2022-10-29T13:44:04;19.60;99.90
41630;DHT22;27322;49.488;8.480;2022-10-29T13:46:55;19.60;99.90
41630;DHT22;27322;49.488;8.480;2022-10-29T13:52:21;19.60;99.90
41630;DHT22;27322;49.488;8.480;2022-10-29T13:54:49;19.60;99.90
41630;DHT22;27322;49.488;8.480;2022-10-29T13:57:29;19.60;99.90
41630;DHT22;27322;49.488;8.480;2022-10-29T14:05:42;19.50;99.90
41630;DHT22;27322;49.488;8.480;2022-10-29T14:11:28;19.50;99.90
41630;DHT22;27322;49.488;8.480;2022-10-29T14:13:58;19.50;99.90
41630;DHT22;27322;49.488;8.480;2022-10-29T14:16:30;19.50;99.90
41630;DHT22;27322;49.488;8.480;2022-10-29T14:18:57;19.50;99.90
41630;DHT22;27322;49.488;8.480;2022-10-29T14:21:29;19.50;99.90
41630;DHT22;27322;49.488;8.480;2022-10-29T14:26:24;19.50;99.90
41630;DHT22;27322;49.488;8.480;2022-10-29T14:28:51;19.40;99.90
41630;DHT22;27322;49.488;8.480;2022-10-29T14:31:18;19.40;99.90
41630;DHT22;27322;49.488;8.480;2022-10-29T14:34:12;19.40;99.90
41630;DHT22;27322;49.488;8.480;2022-10-29T14:39:03;19.30;99.90
41630;DHT22;27322;49.488;8.480;2022-10-29T14:41:29;19.30;99.90
41630;DHT22;27322;49.488;8.480;2022-10-29T14:46:31;19.20;99.90
41630;DHT22;27322;49.488;8.480;2022-10-29T14:51:46;19.20;99.90
41630;DHT22;27322;49.488;8.480;2022-10-29T14:54:18;19.20;99.90
41630;DHT22;27322;49.488;8.480;2022-10-29T14:56:47;19.10;99.90
41630;DHT22;27322;49.488;8.480;2022-10-29T14:59:21;19.10;99.90
41630;DHT22;27322;49.488;8.480;2022-10-29T15:01:53;19.10;99.90
41630;DHT22;27322;49.488;8.480;2022-10-29T15:04:24;19.10;99.90
41630;DHT22;27322;49.488;8.480;2022-10-29T15:06:52;19.10;99.90
41630;DHT22;27322;49.488;8.480;2022-10-29T15:09:21;19.00;99.90
41630;DHT22;27322;49.488;8.480;2022-10-29T15:12:23;19.00;99.90
41630;DHT22;27322;49.488;8.480;2022-10-29T15:14:51;19.00;99.90
41630;DHT22;27322;49.488;8.480;2022-10-29T15:17:21;19.00;99.90
41630;DHT22;27322;49.488;8.480;2022-10-29T15:19:50;18.90;99.90
41630;DHT22;27322;49.488;8.480;2022-10-29T15:22:52;18.90;99.90
41630;DHT22;27322;49.488;8.480;2022-10-29T15:25:22;18.90;99.90
41630;DHT22;27322;49.488;8.480;2022-10-29T15:27:48;18.90;99.90
41630;DHT22;27322;49.488;8.480;2022-10-29T15:30:18;18.80;99.90
41630;DHT22;27322;49.488;8.480;2022-10-29T15:32:44;18.80;99.90
41630;DHT22;27322;49.488;8.480;2022-10-29T15:35:10;18.80;99.90
41630;DHT22;27322;49.488;8.480;2022-10-29T15:37:40;18.80;99.90
41630;DHT22;27322;49.488;8.480;2022-10-29T15:40:17;18.80;99.90
41630;DHT22;27322;49.488;8.480;2022-10-29T15:42:43;18.80;99.90
41630;DHT22;27322;49.488;8.480;2022-10-29T15:45:14;18.80;99.90
41630;DHT22;27322;49.488;8.480;2022-10-29T15:47:42;18.70;99.90
41630;DHT22;27322;49.488;8.480;2022-10-29T15:50:11;18.70;99.90
41630;DHT22;27322;49.488;8.480;2022-10-29T15:52:42;18.70;99.90
41630;DHT22;27322;49.488;8.480;2022-10-29T15:57:40;18.70;99.90
41630;DHT22;27322;49.488;8.480;2022-10-29T16:00:07;18.70;99.90
41630;DHT22;27322;49.488;8.480;2022-10-29T16:02:33;18.70;99.90
41630;DHT22;27322;49.488;8.480;2022-10-29T16:04:59;18.60;99.90
41630;DHT22;27322;49.488;8.480;2022-10-29T16:07:24;18.60;99.90
41630;DHT22;27322;49.488;8.480;2022-10-29T16:09:52;18.60;99.90
41630;DHT22;27322;49.488;8.480;2022-10-29T16:12:19;18.60;99.90
41630;DHT22;27322;49.488;8.480;2022-10-29T16:14:44;18.60;99.90
41630;DHT22;27322;49.488;8.480;2022-10-29T16:17:15;18.50;99.90
41630;DHT22;27322;49.488;8.480;2022-10-29T16:19:41;18.50;99.90
41630;DHT22;27322;49.488;8.480;2022-10-29T16:22:25;18.50;99.90
41630;DHT22;27322;49.488;8.480;2022-10-29T16:24:51;18.50;99.90
41630;DHT22;27322;49.488;8.480;2022-10-29T16:27:17;18.50;99.90
41630;DHT22;27322;49.488;8.480;2022-10-29T16:29:43;18.40;99.90
41630;DHT22;27322;49.488;8.480;2022-10-29T16:32:21;18.40;99.90
41630;DHT22;27322;49.488;8.480;2022-10-29T16:34:47;18.40;99.90
41630;DHT22;27322;49.488;8.480;2022-10-29T16:37:17;18.40;99.90
41630;DHT22;27322;49.488;8.480;2022-10-29T16:39:43;18.40;99.90
41630;DHT22;27322;49.488;8.480;2022-10-29T16:42:23;18.30;99.90
41630;DHT22;27322;49.488;8.480;2022-10-29T16:44:52;18.30;99.90
41630;DHT22;27322;49.488;8.480;2022-10-29T16:47:17;18.30;99.90
41630;DHT22;27322;49.488;8.480;2022-10-29T16:49:43;18.30;99.90
41630;DHT22;27322;49.488;8.480;2022-10-29T16:52:08;18.30;99.90
41630;DHT22;27322;49.488;8.480;2022-10-29T16:54:35;18.20;99.90
41630;DHT22;27322;49.488;8.480;2022-10-29T16:57:00;18.20;99.90
41630;DHT22;27322;49.488;8.480;2022-10-29T16:59:26;18.20;99.90
41630;DHT22;27322;49.488;8.480;2022-10-29T17:01:52;18.20;99.90
41630;DHT22;27322;49.488;8.480;2022-10-29T17:04:18;18.20;99.90
41630;DHT22;27322;49.488;8.480;2022-10-29T17:06:43;18.20;99.90
41630;DHT22;27322;49.488;8.480;2022-10-29T17:09:10;18.20;99.90
41630;DHT22;27322;49.488;8.480;2022-10-29T17:11:36;18.20;99.90
41630;DHT22;27322;49.488;8.480;2022-10-29T17:14:02;18.10;99.90
41630;DHT22;27322;49.488;8.480;2022-10-29T17:16:28;18.10;99.90
41630;DHT22;27322;49.488;8.480;2022-10-29T17:18:53;18.10;99.90
41630;DHT22;27322;49.488;8.480;2022-10-29T17:21:19;18.10;99.90
41630;DHT22;27322;49.488;8.480;2022-10-29T17:23:45;18.10;99.90
41630;DHT22;27322;49.488;8.480;2022-10-29T17:26:10;18.10;99.90
41630;DHT22;27322;49.488;8.480;2022-10-29T17:28:36;18.10;99.90
41630;DHT22;27322;49.488;8.480;2022-10-29T17:31:07;18.00;99.90
41630;DHT22;27322;49.488;8.480;2022-10-29T17:33:33;18.00;99.90
41630;DHT22;27322;49.488;8.480;2022-10-29T17:36:03;18.00;99.90
41630;DHT22;27322;49.488;8.480;2022-10-29T17:38:29;18.00;99.90
41630;DHT22;27322;49.488;8.480;2022-10-29T17:40:55;18.00;99.90
41630;DHT22;27322;49.488;8.480;2022-10-29T17:43:21;18.00;99.90
41630;DHT22;27322;49.488;8.480;2022-10-29T17:45:46;18.00;99.90
41630;DHT22;27322;49.488;8.480;2022-10-29T17:48:12;18.00;99.90
41630;DHT22;27322;49.488;8.480;2022-10-29T17:50:37;17.90;99.90
41630;DHT22;27322;49.488;8.480;2022-10-29T17:53:03;17.90;99.90
41630;DHT22;27322;49.488;8.480;2022-10-29T17:55:29;17.90;99.90
41630;DHT22;27322;49.488;8.480;2022-10-29T17:57:54;17.90;99.90
41630;DHT22;27322;49.488;8.480;2022-10-29T18:00:20;17.90;99.90
41630;DHT22;27322;49.488;8.480;2022-10-29T18:02:49;17.80;99.90
41630;DHT22;27322;49.488;8.480;2022-10-29T18:05:16;17.80;99.90
41630;DHT22;27322;49.488;8.480;2022-10-29T18:07:41;17.80;99.90
41630;DHT22;27322;49.488;8.480;2022-10-29T18:10:07;17.80;99.90
41630;DHT22;27322;49.488;8.480;2022-10-29T18:12:33;17.80;99.90
41630;DHT22;27322;49.488;8.480;2022-10-29T18:14:58;17.80;99.90
41630;DHT22;27322;49.488;8.480;2022-10-29T18:17:24;17.70;99.90
41630;DHT22;27322;49.488;8.480;2022-10-29T18:19:49;17.70;99.90
41630;DHT22;27322;49.488;8.480;2022-10-29T18:22:15;17.70;99.90
41630;DHT22;27322;49.488;8.480;2022-10-29T18:24:40;17.70;99.90
41630;DHT22;27322;49.488;8.480;2022-10-29T18:27:06;17.70;99.90
41630;DHT22;27322;49.488;8.480;2022-10-29T18:29:32;17.60;99.90
41630;DHT22;27322;49.488;8.480;2022-10-29T18:31:57;17.60;99.90
41630;DHT22;27322;49.488;8.480;2022-10-29T18:34:23;17.60;99.90
41630;DHT22;27322;49.488;8.480;2022-10-29T18:36:48;17.60;99.90
41630;DHT22;27322;49.488;8.480;2022-10-29T18:39:14;17.60;99.90